3MI0 weather

Doss Field
Lake George, Michigan, United States

Public forecast

Using degrees Fahrenheit for public forecast. Weather courtesy of forecast.io.

METAR (pilot weather report)

Report is more than 6 hours old.

Closest report is Mount Pleasant Municipal Airport, 22.6 nm (41.8 km) SSE. Retrieved 2019/07/20 05:45 UTC (11 hours ago):

KMOP 200545Z AUTO 25005KT 10SM BKN036 BKN050 27/26 A2985 RMK AO2 T02710255

TAF (pilot weather forecast)

Closest forecast is MBS International Airport, 47.5 nm (88.0 km) ESE. Retrieved 2019/07/20 12:27 UTC (5 hours ago):

TAF KMBS 201125Z 2012/2112 23013KT P6SM VCSH SCT080 BKN200 FM201700 23013G20KT P6SM BKN045 TEMPO 2021/2101 2SM TSRA OVC030CB FM210200 32007KT P6SM SCT080 BKN150